Time;durP1;ratioP1;P1;durP2;ratioP2;P2;SDS_P1;SDS_P2;PMS_P1;PMS_P2;Temp;Humidity;BMP_temperature;BMP_pressure;BME280_temperature;BME280_humidity;BME280_pressure;Samples;Min_cycle;Max_cycle;Signal;HPM_P1;HPM_P2
2021/12/26 03:02:08;;;;;;;40.80;18.20;;;;;;;-8.46;73.36;99898.66;103576;1304;112046;-64
2021/12/26 03:04:41;;;;;;;43.50;18.40;;;;;;;-8.47;73.22;99899.30;103697;1312;139542;-64
2021/12/26 03:07:13;;;;;;;43.50;16.80;;;;;;;-8.46;73.48;99899.16;103867;1319;108941;-64
2021/12/26 03:09:48;;;;;;;38.80;16.80;;;;;;;-8.47;73.35;99899.65;103781;1319;138739;-65
2021/12/26 03:12:20;;;;;;;41.00;17.30;;;;;;;-8.44;73.12;99904.96;104182;1313;96084;-64
2021/12/26 03:14:51;;;;;;;43.30;17.40;;;;;;;-8.46;73.34;99899.68;104763;1313;112618;-65
2021/12/26 03:17:23;;;;;;;43.10;16.90;;;;;;;-8.41;73.26;99898.03;103846;1312;140045;-64
2021/12/26 03:19:55;;;;;;;36.00;15.90;;;;;;;-8.37;73.14;99900.73;103757;1319;108260;-64
2021/12/26 03:22:27;;;;;;;43.30;17.70;;;;;;;-8.35;73.03;99902.48;104616;1310;139296;-64
2021/12/26 03:24:59;;;;;;;36.40;16.40;;;;;;;-8.31;73.07;99902.77;104794;1316;96323;-65
2021/12/26 03:27:31;;;;;;;44.80;16.50;;;;;;;-8.32;73.00;99899.70;104744;1312;112534;-64
2021/12/26 03:30:03;;;;;;;36.60;15.80;;;;;;;-8.37;72.66;99903.92;104509;1316;138763;-64
2021/12/26 03:32:35;;;;;;;34.70;16.10;;;;;;;-8.40;72.82;99901.45;104617;1310;108942;-64
2021/12/26 03:35:09;;;;;;;35.30;16.60;;;;;;;-8.35;73.02;99906.33;104549;1313;139796;-64
2021/12/26 03:37:42;;;;;;;38.30;17.00;;;;;;;-8.33;73.05;99905.40;104674;1312;96083;-64
2021/12/26 03:40:35;;;;;;;40.30;16.80;;;;;;;-8.35;72.95;99908.38;104072;1315;138935;-64
2021/12/26 03:43:08;;;;;;;39.40;17.30;;;;;;;-8.32;73.00;99906.77;104451;1316;109162;-64
2021/12/26 03:45:48;;;;;;;36.30;16.10;;;;;;;-8.28;73.15;99906.92;103270;1316;139571;-66
2021/12/26 03:48:21;;;;;;;39.60;17.30;;;;;;;-8.23;73.11;99908.83;104617;1313;96181;-64
2021/12/26 03:50:54;;;;;;;39.20;16.40;;;;;;;-8.23;72.86;99911.17;103996;1319;95995;-63
2021/12/26 03:53:27;;;;;;;36.40;16.40;;;;;;;-8.24;72.87;99912.13;103987;1318;138868;-64
2021/12/26 03:56:01;;;;;;;36.40;17.00;;;;;;;-8.30;72.78;99906.15;104679;1313;108720;-63
2021/12/26 03:58:33;;;;;;;44.90;17.90;;;;;;;-8.35;72.95;99911.94;104514;1315;140323;-64
2021/12/26 04:01:05;;;;;;;42.80;17.00;;;;;;;-8.34;72.94;99908.91;104347;1313;96230;-64
2021/12/26 04:03:37;;;;;;;41.30;17.60;;;;;;;-8.32;72.59;99912.48;103535;1321;96123;-64
2021/12/26 04:06:09;;;;;;;38.50;16.70;;;;;;;-8.35;72.77;99912.92;104492;1316;139834;-64
2021/12/26 04:08:45;;;;;;;43.30;17.20;;;;;;;-8.39;72.89;99911.60;103775;1320;110322;-64
2021/12/26 04:11:18;;;;;;;38.90;16.80;;;;;;;-8.45;72.62;99918.62;104448;1313;141083;-64
2021/12/26 04:13:49;;;;;;;37.70;17.70;;;;;;;-8.50;72.81;99919.10;104621;1318;96857;-64
2021/12/26 04:16:21;;;;;;;41.40;17.90;;;;;;;-8.52;72.70;99916.99;104399;1311;146632;-65
2021/12/26 04:18:53;;;;;;;38.30;17.10;;;;;;;-8.52;73.04;99913.79;104601;1319;112542;-65
2021/12/26 04:21:25;;;;;;;37.50;17.00;;;;;;;-8.57;72.91;99910.92;104574;1315;108814;-64
2021/12/26 04:24:01;;;;;;;42.60;17.50;;;;;;;-8.58;73.10;99909.38;104029;1316;139487;-64
2021/12/26 04:26:33;;;;;;;44.20;17.50;;;;;;;-8.56;73.15;99912.30;103702;1313;97970;-64
2021/12/26 04:29:05;;;;;;;40.90;17.90;;;;;;;-8.51;73.16;99915.83;103341;1313;140407;-63
2021/12/26 04:31:37;;;;;;;44.10;19.00;;;;;;;-8.51;73.06;99915.50;103217;1315;112546;-64
2021/12/26 04:34:09;;;;;;;41.20;18.30;;;;;;;-8.49;73.26;99919.45;103154;1316;138989;-64
2021/12/26 04:36:42;;;;;;;44.90;18.90;;;;;;;-8.48;73.12;99921.19;103402;1313;109326;-64
2021/12/26 04:39:15;;;;;;;41.50;19.00;;;;;;;-8.47;73.19;99917.84;104705;1317;96342;-64
2021/12/26 04:41:46;;;;;;;43.20;17.90;;;;;;;-8.53;73.04;99916.96;104579;1316;140246;-65
2021/12/26 04:44:38;;;;;;;40.70;17.50;;;;;;;-8.54;73.08;99915.76;104735;1312;113296;-63
2021/12/26 04:47:28;;;;;;;47.30;19.10;;;;;;;-8.56;73.11;99915.86;104407;1312;139162;-65
2021/12/26 04:50:00;;;;;;;46.40;19.70;;;;;;;-8.57;73.06;99918.17;104515;1315;107967;-64
2021/12/26 04:52:45;;;;;;;50.30;20.30;;;;;;;-8.58;73.12;99915.78;103261;1316;138812;-64
2021/12/26 04:55:23;;;;;;;44.10;18.70;;;;;;;-8.56;73.16;99915.84;104691;1316;96527;-64
2021/12/26 04:57:56;;;;;;;48.30;20.80;;;;;;;-8.56;73.23;99916.52;104556;1318;139469;-65
2021/12/26 05:00:30;;;;;;;43.80;19.40;;;;;;;-8.57;73.00;99914.30;104604;1317;108989;-64
2021/12/26 05:03:04;;;;;;;46.30;19.30;;;;;;;-8.57;72.98;99914.31;104724;1313;106686;-65
2021/12/26 05:05:37;;;;;;;47.00;18.90;;;;;;;-8.62;72.88;99914.58;104000;1314;138771;-65
2021/12/26 05:08:10;;;;;;;45.50;19.20;;;;;;;-8.63;73.02;99917.92;104788;1317;95739;-64
2021/12/26 05:10:42;;;;;;;48.70;19.90;;;;;;;-8.61;72.86;99916.64;103461;1316;138788;-65
2021/12/26 05:13:14;;;;;;;46.40;20.50;;;;;;;-8.68;72.88;99921.75;103264;1317;109053;-66
2021/12/26 05:15:46;;;;;;;50.50;19.60;;;;;;;-8.69;72.76;99920.02;103358;1314;109245;-64
2021/12/26 05:18:18;;;;;;;39.80;19.60;;;;;;;-8.76;72.61;99920.48;103141;1315;138618;-65
2021/12/26 05:20:52;;;;;;;42.10;20.10;;;;;;;-8.78;72.84;99928.82;103457;1316;97851;-65
2021/12/26 05:23:24;;;;;;;46.80;19.40;;;;;;;-8.80;72.60;99930.39;103103;1315;139329;-63
2021/12/26 05:25:56;;;;;;;47.30;20.30;;;;;;;-8.86;73.01;99933.19;103475;1310;109063;-65
2021/12/26 05:28:28;;;;;;;43.70;20.00;;;;;;;-8.92;72.86;99931.45;103273;1319;140099;-65
2021/12/26 05:31:01;;;;;;;51.20;19.70;;;;;;;-8.95;73.06;99935.36;103414;1317;97859;-65
2021/12/26 05:33:39;;;;;;;48.80;21.00;;;;;;;-8.98;73.30;99938.11;104639;1314;96279;-63
2021/12/26 05:36:11;;;;;;;45.00;20.40;;;;;;;-8.97;73.16;99941.15;104636;1312;138320;-64
2021/12/26 05:38:44;;;;;;;49.30;21.00;;;;;;;-9.04;72.98;99938.70;104668;1318;108873;-65
2021/12/26 05:41:16;;;;;;;44.10;21.50;;;;;;;-9.06;73.17;99938.77;104193;1318;139242;-65
2021/12/26 05:44:00;;;;;;;46.30;20.80;;;;;;;-9.08;73.03;99944.07;103555;1314;98384;-64
2021/12/26 05:46:33;;;;;;;49.40;21.50;;;;;;;-9.10;73.04;99943.65;103338;1317;139473;-64
2021/12/26 05:49:05;;;;;;;46.80;20.90;;;;;;;-9.14;73.12;99948.54;104690;1315;112567;-64
2021/12/26 05:51:44;;;;;;;51.50;22.30;;;;;;;-9.19;73.28;99945.98;103855;1313;108781;-64
2021/12/26 05:54:16;;;;;;;49.60;21.10;;;;;;;-9.22;73.57;99939.78;104660;1316;139131;-64
2021/12/26 05:56:48;;;;;;;57.30;22.20;;;;;;;-9.23;73.40;99938.23;104759;1312;96313;-65
2021/12/26 05:59:20;;;;;;;57.10;22.90;;;;;;;-9.23;73.64;99937.21;104556;1316;138305;-65
2021/12/26 06:01:52;;;;;;;52.20;22.20;;;;;;;-9.23;73.42;99939.75;104736;1319;113335;-64
2021/12/26 06:04:24;;;;;;;51.30;21.40;;;;;;;-9.24;73.41;99946.79;103512;1315;138965;-64
2021/12/26 06:06:57;;;;;;;51.20;22.00;;;;;;;-9.29;73.60;99952.34;103497;1317;107738;-63
2021/12/26 06:09:29;;;;;;;48.70;24.00;;;;;;;-9.30;73.49;99955.83;103164;1317;98528;-64
2021/12/26 06:12:01;;;;;;;52.30;23.40;;;;;;;-9.34;73.37;99967.24;103339;1317;139032;-64
2021/12/26 06:14:33;;;;;;;51.20;22.60;;;;;;;-9.32;73.76;99972.38;103521;1313;113889;-65
2021/12/26 06:17:06;;;;;;;53.60;24.50;;;;;;;-9.30;74.08;99972.81;103255;1313;140290;-64
2021/12/26 06:19:58;;;;;;;55.70;24.10;;;;;;;-9.30;74.18;99970.30;103652;1322;107977;-64
2021/12/26 06:22:54;;;;;;;51.00;23.30;;;;;;;-9.27;74.58;99975.13;103525;1317;139582;-64
2021/12/26 06:25:57;;;;;;;53.40;23.50;;;;;;;-9.29;74.93;99974.87;103462;1316;97850;-65
2021/12/26 06:28:47;;;;;;;56.20;22.60;;;;;;;-9.28;75.26;99981.48;103147;1316;138499;-65
2021/12/26 06:31:37;;;;;;;58.60;25.40;;;;;;;-9.30;75.17;99982.77;103545;1312;109325;-65
2021/12/26 06:34:32;;;;;;;56.20;24.40;;;;;;;-9.23;75.60;99984.90;103081;1318;138765;-65
2021/12/26 06:37:23;;;;;;;53.20;24.10;;;;;;;-9.20;75.65;99986.20;103928;1319;96032;-63
2021/12/26 06:40:15;;;;;;;52.10;23.70;;;;;;;-9.16;75.82;99992.94;103407;1316;138972;-64
2021/12/26 06:43:07;;;;;;;57.30;23.50;;;;;;;-9.10;75.87;99989.96;104535;1313;112570;-64
2021/12/26 06:45:57;;;;;;;55.00;24.10;;;;;;;-9.05;75.83;99999.63;103406;1317;140163;-64
2021/12/26 06:48:29;;;;;;;50.40;22.00;;;;;;;-9.03;76.09;100000.03;103484;1313;109073;-64
2021/12/26 06:51:03;;;;;;;52.20;23.20;;;;;;;-8.98;76.30;100004.62;103369;1312;97828;-63
2021/12/26 06:53:35;;;;;;;51.20;24.00;;;;;;;-8.90;76.37;100002.63;103366;1316;138720;-64
2021/12/26 06:56:07;;;;;;;53.40;23.30;;;;;;;-8.85;76.38;100004.98;103455;1316;113693;-64
2021/12/26 06:58:39;;;;;;;56.20;23.90;;;;;;;-8.76;76.48;100006.04;104665;1318;139391;-64
2021/12/26 07:01:11;;;;;;;56.70;24.30;;;;;;;-8.68;76.75;100002.66;104770;1319;108890;-65
2021/12/26 07:03:43;;;;;;;50.20;22.40;;;;;;;-8.63;76.56;100002.02;104627;1316;96947;-64
2021/12/26 07:06:16;;;;;;;50.80;22.80;;;;;;;-8.61;76.33;100005.67;103468;1320;139435;-64
2021/12/26 07:08:48;;;;;;;55.70;22.90;;;;;;;-8.59;76.46;100009.45;103517;1317;112172;-64
2021/12/26 07:11:20;;;;;;;54.60;23.60;;;;;;;-8.53;76.43;100009.00;103177;1319;139071;-64
2021/12/26 07:13:53;;;;;;;52.50;23.10;;;;;;;-8.47;76.45;100012.94;103510;1313;108458;-64
2021/12/26 07:16:25;;;;;;;54.00;22.60;;;;;;;-8.37;76.90;100011.67;103389;1317;139301;-65
2021/12/26 07:18:57;;;;;;;50.00;22.50;;;;;;;-8.25;76.86;100017.98;103488;1313;98593;-65
2021/12/26 07:21:37;;;;;;;53.10;24.50;;;;;;;-8.16;77.18;100015.48;103381;1316;112533;-63
2021/12/26 07:24:15;;;;;;;55.10;23.40;;;;;;;-8.01;77.21;100021.63;103264;1312;138786;-65
2021/12/26 07:26:48;;;;;;;56.10;23.40;;;;;;;-7.98;76.78;100016.52;104285;1314;107995;-65
2021/12/26 07:29:41;;;;;;;56.20;25.40;;;;;;;-8.01;76.95;100015.74;104009;1317;138719;-65
2021/12/26 07:32:13;;;;;;;59.90;25.30;;;;;;;-7.97;76.84;100024.48;104609;1316;96105;-65
2021/12/26 07:34:46;;;;;;;58.90;25.10;;;;;;;-7.95;76.73;100029.98;104141;1317;139543;-64
2021/12/26 07:37:18;;;;;;;52.40;24.40;;;;;;;-7.89;76.59;100037.10;103457;1314;109125;-66
2021/12/26 07:39:50;;;;;;;51.60;24.40;;;;;;;-7.80;76.72;100042.99;103831;1316;108799;-64
2021/12/26 07:42:22;;;;;;;56.10;25.50;;;;;;;-7.73;76.61;100041.25;104569;1313;137617;-65
2021/12/26 07:45:13;;;;;;;56.30;24.50;;;;;;;-7.69;76.57;100044.13;104745;1316;96090;-64
2021/12/26 07:47:55;;;;;;;55.70;25.10;;;;;;;-7.66;76.42;100042.03;104535;1313;139152;-65
2021/12/26 07:50:27;;;;;;;58.40;25.00;;;;;;;-7.61;76.57;100043.05;104595;1313;107968;-65
2021/12/26 07:53:18;;;;;;;60.30;25.70;;;;;;;-7.56;76.71;100047.30;104621;1318;138868;-65
2021/12/26 07:56:08;;;;;;;56.00;25.80;;;;;;;-7.50;76.83;100047.71;104781;1307;95976;-64
2021/12/26 07:58:59;;;;;;;63.40;26.90;;;;;;;-7.45;76.48;100053.59;104170;1313;140941;-64
2021/12/26 08:01:49;;;;;;;66.10;27.30;;;;;;;-7.39;76.53;100051.48;104331;1313;112522;-65
2021/12/26 08:04:40;;;;;;;62.80;27.40;;;;;;;-7.37;76.48;100055.40;103334;1317;139025;-64
2021/12/26 08:07:12;;;;;;;55.30;25.40;;;;;;;-7.34;76.64;100052.85;103356;1313;110181;-64
2021/12/26 08:09:44;;;;;;;64.10;26.70;;;;;;;-7.29;76.60;100055.36;103424;1312;97868;-64
2021/12/26 08:12:16;;;;;;;72.30;28.50;;;;;;;-7.28;76.50;100057.25;104576;1313;138480;-65
2021/12/26 08:14:47;;;;;;;68.60;28.60;;;;;;;-7.23;76.67;100056.75;104621;1314;113003;-65
2021/12/26 08:17:19;;;;;;;63.40;27.60;;;;;;;-7.15;76.58;100057.39;104666;1315;140667;-65
2021/12/26 08:19:51;;;;;;;59.60;26.30;;;;;;;-7.07;76.50;100057.48;104297;1313;108913;-65
2021/12/26 08:22:23;;;;;;;56.30;26.10;;;;;;;-7.03;76.45;100056.64;103733;1313;140177;-64
2021/12/26 08:24:55;;;;;;;51.20;23.40;;;;;;;-6.82;76.70;100058.89;103522;1314;97830;-65
2021/12/26 08:27:27;;;;;;;55.50;24.20;;;;;;;-6.64;76.29;100062.02;103371;1314;112586;-65
2021/12/26 08:29:59;;;;;;;53.60;23.60;;;;;;;-6.55;75.87;100060.65;103412;1313;139319;-63
2021/12/26 08:32:33;;;;;;;57.60;24.90;;;;;;;-6.45;75.65;100063.16;103405;1313;107943;-65
2021/12/26 08:35:07;;;;;;;53.80;24.60;;;;;;;-6.30;75.32;100069.57;103364;1314;139831;-64
2021/12/26 08:37:40;;;;;;;52.10;24.60;;;;;;;-6.18;75.19;100063.21;104778;1312;95950;-64
2021/12/26 08:40:14;;;;;;;55.30;23.40;;;;;;;-6.10;74.62;100063.97;103478;1312;139434;-65
2021/12/26 08:42:45;;;;;;;52.00;22.90;;;;;;;-5.98;74.44;100061.62;104572;1319;108987;-65
2021/12/26 08:45:21;;;;;;;49.60;23.80;;;;;;;-5.88;74.26;100060.73;103817;1312;108882;-64
2021/12/26 08:47:57;;;;;;;51.90;23.00;;;;;;;-5.75;74.11;100065.17;104666;1314;138561;-65
2021/12/26 08:50:29;;;;;;;49.80;24.10;;;;;;;-5.64;73.93;100072.64;104253;1312;96089;-64
2021/12/26 08:53:02;;;;;;;50.60;25.10;;;;;;;-5.54;73.47;100074.13;103220;1313;137197;-64
2021/12/26 08:55:34;;;;;;;49.30;24.90;;;;;;;-5.47;73.27;100075.48;103458;1313;109157;-65
2021/12/26 08:58:06;;;;;;;53.40;25.50;;;;;;;-5.41;73.10;100083.95;103327;1313;139308;-65
2021/12/26 09:00:39;;;;;;;53.30;24.80;;;;;;;-5.45;72.64;100082.50;103400;1313;97962;-64
2021/12/26 09:03:11;;;;;;;47.20;24.10;;;;;;;-5.46;72.99;100077.04;103440;1312;97874;-64
2021/12/26 09:05:43;;;;;;;47.00;24.10;;;;;;;-5.38;72.90;100081.02;103329;1313;139396;-64
2021/12/26 09:08:15;;;;;;;51.80;25.40;;;;;;;-5.41;72.79;100084.80;103424;1313;109002;-65
2021/12/26 09:10:47;;;;;;;52.20;24.50;;;;;;;-5.47;72.52;100090.75;103378;1317;138178;-64
2021/12/26 09:13:19;;;;;;;54.70;25.30;;;;;;;-5.59;72.34;100097.15;103430;1317;97874;-64
2021/12/26 09:15:50;;;;;;;48.20;23.90;;;;;;;-5.72;72.55;100092.71;103484;1313;97911;-64
2021/12/26 09:18:22;;;;;;;55.90;23.90;;;;;;;-5.83;72.74;100088.99;103299;1313;138066;-64
2021/12/26 09:20:55;;;;;;;50.80;24.90;;;;;;;-5.92;73.22;100081.64;103454;1313;108908;-64
2021/12/26 09:23:26;;;;;;;51.30;24.50;;;;;;;-5.94;73.48;100082.05;103289;1313;139232;-64
2021/12/26 09:25:58;;;;;;;58.90;27.30;;;;;;;-6.00;73.52;100081.70;103371;1314;97848;-65
2021/12/26 09:28:33;;;;;;;52.00;25.70;;;;;;;-6.04;73.60;100080.73;103200;1313;138735;-64
2021/12/26 09:31:05;;;;;;;52.40;25.90;;;;;;;-6.04;73.63;100069.55;103262;1315;112484;-65
2021/12/26 09:33:37;;;;;;;50.60;24.60;;;;;;;-5.96;73.76;100072.19;103434;1317;108916;-64
2021/12/26 09:36:09;;;;;;;57.30;26.80;;;;;;;-5.89;73.72;100072.91;103304;1317;138449;-65
2021/12/26 09:38:41;;;;;;;57.90;25.50;;;;;;;-5.75;73.70;100072.96;103410;1317;97853;-64
2021/12/26 09:41:13;;;;;;;52.10;25.20;;;;;;;-5.54;73.40;100072.23;103340;1313;138056;-64
2021/12/26 09:43:45;;;;;;;50.00;24.70;;;;;;;-5.28;73.16;100066.71;103399;1312;112227;-64
2021/12/26 09:46:17;;;;;;;42.80;22.10;;;;;;;-4.91;73.27;100071.48;103347;1314;139544;-64
2021/12/26 09:48:49;;;;;;;47.30;23.20;;;;;;;-4.70;72.62;100074.24;103388;1314;108916;-64
2021/12/26 09:51:24;;;;;;;46.00;23.60;;;;;;;-4.55;72.23;100075.31;103435;1313;97847;-65
2021/12/26 09:53:56;;;;;;;46.40;23.50;;;;;;;-4.44;71.29;100072.89;103347;1312;137881;-64
2021/12/26 09:56:33;;;;;;;50.10;24.60;;;;;;;-4.23;71.53;100078.64;103435;1314;112527;-64
2021/12/26 09:59:07;;;;;;;44.50;24.00;;;;;;;-3.99;71.06;100069.55;103342;1316;140004;-64
2021/12/26 10:01:42;;;;;;;51.40;24.50;;;;;;;-3.71;70.95;100076.14;103420;1312;109865;-64
2021/12/26 10:04:23;;;;;;;50.60;24.40;;;;;;;-3.39;70.69;100079.56;103330;1312;139529;-64
2021/12/26 10:07:00;;;;;;;44.70;23.30;;;;;;;-3.17;69.74;100083.77;103459;1312;97819;-64
2021/12/26 10:09:36;;;;;;;43.10;23.00;;;;;;;-3.12;68.83;100084.21;103435;1313;111223;-65
2021/12/26 10:12:12;;;;;;;48.40;23.90;;;;;;;-3.12;68.59;100079.77;103371;1313;138488;-64
2021/12/26 10:14:48;;;;;;;47.10;23.40;;;;;;;-3.18;67.83;100078.14;104768;1312;109050;-64
2021/12/26 10:17:26;;;;;;;47.00;24.00;;;;;;;-3.27;68.06;100075.90;104664;1313;138206;-64
2021/12/26 10:20:07;;;;;;;45.90;23.20;;;;;;;-3.35;67.51;100077.60;104765;1313;96217;-65
2021/12/26 10:22:39;;;;;;;42.70;21.70;;;;;;;-3.50;67.63;100079.66;103912;1313;138516;-64
2021/12/26 10:25:14;;;;;;;44.60;22.00;;;;;;;-3.68;67.48;100083.02;103459;1317;109121;-63
2021/12/26 10:27:48;;;;;;;43.10;22.20;;;;;;;-3.81;67.93;100081.67;104761;1313;108683;-64
2021/12/26 10:30:24;;;;;;;44.20;23.60;;;;;;;-3.96;68.14;100084.24;104335;1315;138378;-66
2021/12/26 10:33:00;;;;;;;48.70;23.80;;;;;;;-4.10;68.42;100092.73;103443;1311;97852;-64
2021/12/26 10:35:31;;;;;;;;;;;;;;;-4.19;68.66;100085.71;103365;1318;138280;-64
2021/12/26 10:38:02;;;;;;;45.70;22.20;;;;;;;-4.28;68.79;100089.56;103326;1314;109114;-64
2021/12/26 10:40:35;;;;;;;47.40;23.50;;;;;;;-4.45;69.15;100093.73;103171;1317;139973;-65
2021/12/26 10:43:12;;;;;;;48.00;23.20;;;;;;;-4.59;69.30;100095.73;103423;1312;97875;-65
2021/12/26 10:45:45;;;;;;;48.80;23.40;;;;;;;-4.69;69.70;100101.59;103342;1313;97821;-65
2021/12/26 10:48:25;;;;;;;52.50;26.80;;;;;;;-4.75;70.30;100096.16;103308;1312;138880;-64
2021/12/26 10:50:57;;;;;;;46.40;23.80;;;;;;;-4.80;70.17;100098.42;103375;1314;108973;-65
2021/12/26 10:53:29;;;;;;;46.60;22.00;;;;;;;-4.87;70.64;100099.06;103278;1313;138373;-65
2021/12/26 10:56:13;;;;;;;45.80;23.50;;;;;;;-4.93;70.89;100102.29;103419;1316;97950;-65
2021/12/26 10:58:45;;;;;;;47.00;22.60;;;;;;;-4.97;71.31;100102.37;104657;1313;139950;-65
2021/12/26 11:01:17;;;;;;;47.70;22.80;;;;;;;-4.94;71.61;100104.30;103507;1314;112678;-65
2021/12/26 11:03:48;;;;;;;45.50;23.20;;;;;;;-4.87;71.88;100100.92;103776;1319;107661;-64
2021/12/26 11:06:22;;;;;;;45.40;23.90;;;;;;;-4.78;71.60;100101.18;104650;1313;139053;-64
2021/12/26 11:08:54;;;;;;;45.10;23.00;;;;;;;-4.69;71.93;100100.72;103695;1313;97839;-64
2021/12/26 11:11:26;;;;;;;47.40;23.40;;;;;;;-4.66;71.64;100102.00;103325;1314;138539;-64
2021/12/26 11:14:05;;;;;;;48.00;23.50;;;;;;;-4.62;71.91;100108.73;103474;1313;112516;-64
2021/12/26 11:16:40;;;;;;;49.40;23.60;;;;;;;-4.63;72.01;100111.94;104636;1313;153271;-65
2021/12/26 11:19:12;;;;;;;44.20;21.30;;;;;;;-4.61;71.69;100105.20;104766;1312;109243;-65
2021/12/26 11:21:44;;;;;;;45.40;22.50;;;;;;;-4.59;72.13;100102.55;103677;1313;97821;-65
2021/12/26 11:24:16;;;;;;;47.20;22.30;;;;;;;-4.58;72.45;100107.81;103317;1313;137948;-65
2021/12/26 11:26:49;;;;;;;48.40;23.90;;;;;;;-4.59;72.23;100110.52;103410;1314;112844;-65
2021/12/26 11:29:25;;;;;;;46.60;23.30;;;;;;;-4.54;72.43;100109.27;103929;1313;138172;-65
2021/12/26 11:31:57;;;;;;;44.40;22.10;;;;;;;-4.48;72.54;100108.92;103392;1314;108897;-64
2021/12/26 11:34:31;;;;;;;46.50;22.40;;;;;;;-4.43;72.51;100107.35;103271;1312;139269;-65
2021/12/26 11:37:04;;;;;;;49.40;23.80;;;;;;;-4.41;72.54;100108.27;103415;1313;97841;-65
2021/12/26 11:40:04;;;;;;;45.80;22.80;;;;;;;-4.36;72.49;100111.94;103159;1317;138452;-66
2021/12/26 11:43:22;;;;;;;45.80;22.30;;;;;;;-4.39;72.14;100107.62;103103;1313;109837;-65
2021/12/26 11:46:22;;;;;;;53.60;23.60;;;;;;;-4.45;72.30;100104.94;103275;1313;138588;-65
2021/12/26 11:50:00;;;;;;;48.00;23.50;;;;;;;-4.46;72.49;100106.11;103391;1313;97870;-65
2021/12/26 11:53:28;;;;;;;42.20;22.30;;;;;;;-4.34;72.80;100101.79;102982;1324;140032;-65
2021/12/26 11:56:31;;;;;;;41.20;22.10;;;;;;;-4.23;72.74;100099.55;104357;1317;111573;-65
2021/12/26 11:59:21;;;;;;;46.10;23.10;;;;;;;-4.19;72.45;100093.36;103306;1317;138250;-65
2021/12/26 12:01:53;;;;;;;45.50;22.80;;;;;;;-4.15;72.46;100088.20;102986;1320;108767;-65
2021/12/26 12:04:26;;;;;;;49.80;24.00;;;;;;;-4.06;72.30;100078.73;102912;1316;138343;-65
2021/12/26 12:07:05;;;;;;;49.00;23.60;;;;;;;-4.04;72.40;100074.70;103031;1317;97932;-64
2021/12/26 12:09:38;;;;;;;45.60;23.90;;;;;;;-3.99;72.27;100077.88;103040;1322;112203;-65
2021/12/26 12:12:13;;;;;;;48.40;24.20;;;;;;;-3.89;72.46;100082.03;102958;1318;138226;-65
2021/12/26 12:14:54;;;;;;;47.20;23.60;;;;;;;-3.79;72.37;100081.90;104260;1317;108825;-64
2021/12/26 12:17:29;;;;;;;46.70;24.40;;;;;;;-3.72;72.17;100086.51;104180;1320;138740;-65
2021/12/26 12:20:14;;;;;;;46.40;23.50;;;;;;;-3.74;72.00;100089.52;104355;1318;95868;-65
2021/12/26 12:23:15;;;;;;;47.40;23.80;;;;;;;-3.70;71.95;100089.09;104261;1317;139168;-65
2021/12/26 12:25:52;;;;;;;43.90;22.70;;;;;;;-3.59;72.14;100095.09;103179;1325;109159;-64
2021/12/26 12:28:29;;;;;;;45.00;23.10;;;;;;;-3.51;72.31;100092.05;103147;1314;142897;-66
2021/12/26 12:31:20;;;;;;;45.30;23.20;;;;;;;-3.50;71.57;100095.46;103439;1315;97954;-65
2021/12/26 12:34:04;;;;;;;45.30;22.90;;;;;;;-3.49;71.43;100098.04;104734;1313;96050;-66
2021/12/26 12:36:39;;;;;;;42.80;22.40;;;;;;;-3.43;71.49;100099.02;104634;1312;140138;-65
2021/12/26 12:39:15;;;;;;;46.00;22.70;;;;;;;-3.32;71.67;100099.27;104769;1313;108875;-65
2021/12/26 12:41:48;;;;;;;48.10;22.70;;;;;;;-3.16;71.32;100099.95;104579;1313;138742;-65
2021/12/26 12:44:31;;;;;;;45.40;21.50;;;;;;;-3.04;71.30;100096.61;104367;1313;95869;-65
2021/12/26 12:47:06;;;;;;;41.70;21.20;;;;;;;-2.92;70.78;100094.64;104670;1312;138581;-65
2021/12/26 12:49:51;;;;;;;39.60;21.10;;;;;;;-2.79;71.16;100092.00;104771;1312;112531;-66
2021/12/26 12:52:46;;;;;;;40.50;22.00;;;;;;;-2.68;70.23;100089.48;104278;1313;140562;-66
2021/12/26 12:55:22;;;;;;;42.60;20.40;;;;;;;-2.52;70.40;100085.88;103477;1309;108962;-65
2021/12/26 12:57:56;;;;;;;45.20;21.20;;;;;;;-2.41;69.63;100086.05;103424;1312;97892;-65
2021/12/26 13:00:42;;;;;;;43.30;20.20;;;;;;;-2.41;69.60;100092.70;104455;1313;137989;-66
2021/12/26 13:03:20;;;;;;;38.60;20.30;;;;;;;-2.41;69.48;100092.17;104087;1313;112554;-64
2021/12/26 13:05:53;;;;;;;40.00;19.40;;;;;;;-2.36;69.20;100094.64;103482;1312;138677;-65
2021/12/26 13:08:25;;;;;;;40.40;20.30;;;;;;;-2.32;69.37;100096.27;103316;1313;108891;-65
2021/12/26 13:10:58;;;;;;;39.10;20.20;;;;;;;-2.30;68.90;100095.79;103250;1316;140260;-65
2021/12/26 13:13:31;;;;;;;36.70;19.30;;;;;;;-2.27;69.03;100094.98;103400;1316;98566;-65
2021/12/26 13:16:05;;;;;;;35.40;19.00;;;;;;;-2.24;68.54;100094.69;103449;1314;112400;-65
2021/12/26 13:18:40;;;;;;;34.30;18.50;;;;;;;-2.25;68.57;100098.08;104676;1312;138428;-65
2021/12/26 13:21:13;;;;;;;38.90;19.90;;;;;;;-2.26;68.19;100097.72;103918;1313;108910;-65
2021/12/26 13:23:46;;;;;;;35.50;19.20;;;;;;;-2.32;68.15;100093.88;103343;1313;138607;-65
2021/12/26 13:26:18;;;;;;;40.10;19.80;;;;;;;-2.38;68.07;100091.04;104658;1316;95696;-64
2021/12/26 13:28:50;;;;;;;39.20;20.30;;;;;;;-2.35;68.07;100092.61;103357;1313;138491;-64
2021/12/26 13:31:24;;;;;;;41.10;20.90;;;;;;;-2.33;68.53;100092.99;103424;1314;109046;-65
2021/12/26 13:34:00;;;;;;;40.10;20.20;;;;;;;-2.29;68.13;100091.55;104049;1313;109161;-65
2021/12/26 13:36:34;;;;;;;41.30;21.50;;;;;;;-2.26;67.94;100096.02;104468;1312;138288;-65
2021/12/26 13:39:06;;;;;;;39.80;20.10;;;;;;;-2.26;67.99;100098.41;104777;1313;95770;-66
2021/12/26 13:41:44;;;;;;;39.10;20.10;;;;;;;-2.27;68.00;100100.60;104661;1310;139038;-65
2021/12/26 13:44:16;;;;;;;37.10;18.40;;;;;;;-2.28;67.30;100102.30;104157;1312;108920;-66
2021/12/26 13:46:56;;;;;;;41.60;19.80;;;;;;;-2.36;66.93;100104.35;104567;1313;139685;-66
2021/12/26 13:49:28;;;;;;;38.50;19.70;;;;;;;-2.44;67.27;100106.45;104732;1312;96092;-66
2021/12/26 13:52:01;;;;;;;37.10;18.60;;;;;;;-2.50;67.21;100107.02;104752;1313;96026;-65
2021/12/26 13:54:47;;;;;;;37.70;19.50;;;;;;;-2.60;66.81;100111.24;104538;1313;138515;-64
2021/12/26 13:57:22;;;;;;;42.70;19.90;;;;;;;-2.73;66.75;100113.54;104743;1313;109924;-65
2021/12/26 13:59:56;;;;;;;38.30;18.90;;;;;;;-2.84;67.02;100115.04;104633;1313;138281;-65
2021/12/26 14:02:30;;;;;;;39.50;19.30;;;;;;;-2.92;67.07;100112.31;103915;1313;96171;-65
2021/12/26 14:05:05;;;;;;;37.30;19.30;;;;;;;-3.02;66.92;100118.59;103643;1313;140429;-65
2021/12/26 14:07:41;;;;;;;39.90;19.10;;;;;;;-3.12;67.08;100121.45;103462;1316;112478;-65
2021/12/26 14:10:19;;;;;;;37.40;19.60;;;;;;;-3.22;67.04;100126.85;103427;1312;108022;-65
2021/12/26 14:12:54;;;;;;;40.20;20.20;;;;;;;-3.35;66.94;100132.85;103653;1319;140607;-66
2021/12/26 14:15:30;;;;;;;42.40;21.50;;;;;;;-3.48;67.20;100135.30;104418;1312;96102;-65
2021/12/26 14:18:04;;;;;;;46.70;22.00;;;;;;;-3.59;67.43;100127.38;104156;1312;138646;-65
2021/12/26 14:20:48;;;;;;;39.60;19.90;;;;;;;-3.69;67.52;100128.36;104756;1313;111251;-64
2021/12/26 14:23:23;;;;;;;37.40;18.50;;;;;;;-3.84;67.21;100130.89;104613;1313;138351;-64
2021/12/26 14:25:56;;;;;;;;;;;;;;;-4.02;67.34;100130.95;104225;1312;107847;-65
2021/12/26 14:28:30;;;;;;;36.40;17.40;;;;;;;-4.21;67.15;100133.37;104695;1307;96091;-65
2021/12/26 14:31:02;;;;;;;35.60;17.70;;;;;;;-4.36;67.61;100133.52;104656;1313;139150;-65
2021/12/26 14:33:47;;;;;;;31.10;16.90;;;;;;;-4.50;67.49;100127.52;103633;1312;112413;-64
2021/12/26 14:36:20;;;;;;;35.90;16.60;;;;;;;-4.61;67.95;100129.45;104649;1312;139022;-66
2021/12/26 14:38:57;;;;;;;32.50;15.60;;;;;;;-4.70;67.85;100130.88;103796;1313;108869;-65
2021/12/26 14:41:38;;;;;;;34.50;16.10;;;;;;;-4.81;68.01;100130.11;103355;1313;138536;-64